Details for Virgin Australia at YBBN




Go Back


Latest METAR
Local Time

YBBN 221030Z 09003KT CAVOK 18/13 Q1025 NOSIG
22/09/2018, 20:47:22

Description
Results
Virgin Australia Logo
Number of Pilots based at YBBN
0 Pilots Based here
Number of Virgin Australia Flights Departed from YBBN
2 Flights Departed
Number of Virgin Australia Flights Arrived at YBBN
2 Flights Arrived
Number of Virgin Australia Schedules Departing from YBBN
129 Schedules
Number of Virgin Australia Schedules Arriving at YBBN
145 Schedules
Number of Virgin Australia Schedules Departing from YBBN availible today
58 Schedules Today
Number of Virgin Australia Schedules Arriving at YBBN availible today
61 Schedules Today
Average Landing Rate at YBBN
-196 fpm
Virgin Australia Average Landing Rate at YBBN
-122 fpm
Total Fuel Purchased at YBBN by Virgin Australia
8,313.44 kgs / 18,327.81 lbs

Pilots Based at YBBN


Pilot ID
Pilot Name
Pilot Rank
No. of Flights
No. of Flying Hours
There are no pilots assigned to this hub!   Will you be the first?
Content